createdAt,value
2024-05-09T00:02:27.538Z,99018.22
2024-05-09T00:04:57.189Z,99018.53
2024-05-09T00:07:26.773Z,99020.91
2024-05-09T00:09:56.249Z,99021.91
2024-05-09T00:12:25.881Z,99023.81
2024-05-09T00:14:58.043Z,99018.22
2024-05-09T00:17:27.736Z,99019.00
2024-05-09T00:19:57.433Z,99012.91
2024-05-09T00:22:26.963Z,99012.38
2024-05-09T00:24:56.514Z,99007.53
2024-05-09T00:27:26.009Z,99004.09
2024-05-09T00:29:58.148Z,99010.34
2024-05-09T00:32:27.802Z,99007.34
2024-05-09T00:34:57.503Z,99015.19
2024-05-09T00:37:27.139Z,99012.34
2024-05-09T00:39:56.628Z,99008.03
2024-05-09T00:42:26.103Z,99013.34
2024-05-09T00:44:58.271Z,99013.53
2024-05-09T00:47:27.919Z,99009.22
2024-05-09T00:49:57.540Z,99009.13
2024-05-09T00:52:27.675Z,99001.41
2024-05-09T00:54:58.644Z,98998.63
2024-05-09T00:57:30.018Z,98990.94
2024-05-09T01:00:04.760Z,98996.28
2024-05-09T01:02:35.912Z,98989.81
2024-05-09T01:05:05.646Z,98991.16
2024-05-09T01:07:35.204Z,98994.25
2024-05-09T01:10:09.022Z,98998.41
2024-05-09T01:12:41.093Z,99000.56
2024-05-09T01:15:13.264Z,99002.13
2024-05-09T01:17:43.686Z,99010.59
2024-05-09T01:20:20.018Z,99003.81
2024-05-09T01:22:56.987Z,99005.25
2024-05-09T01:25:29.139Z,99006.25
2024-05-09T01:27:58.653Z,99003.78
2024-05-09T01:30:34.311Z,98999.25
2024-05-09T01:33:08.547Z,99002.13
2024-05-09T01:35:41.443Z,99004.72
2024-05-09T01:38:13.227Z,99005.31
2024-05-09T01:40:46.380Z,99001.41
2024-05-09T01:43:15.962Z,98998.91
2024-05-09T01:45:45.467Z,99000.09
2024-05-09T01:48:15.114Z,99012.16
2024-05-09T01:50:44.847Z,99000.91
2024-05-09T01:53:16.022Z,98998.22
2024-05-09T01:55:48.246Z,98996.75
2024-05-09T01:58:18.453Z,99002.34
2024-05-09T02:00:48.369Z,98993.81
2024-05-09T02:03:18.409Z,99000.97
2024-05-09T02:05:50.021Z,98986.19
2024-05-09T02:08:21.760Z,98989.97
2024-05-09T02:10:54.408Z,98986.84
2024-05-09T02:13:23.988Z,98982.03
2024-05-09T02:15:53.841Z,98984.56
2024-05-09T02:18:23.702Z,98983.19
2024-05-09T02:20:53.519Z,98994.75
2024-05-09T02:23:23.171Z,98985.94
2024-05-09T02:25:55.390Z,98985.50
2024-05-09T02:28:24.907Z,98990.16
2024-05-09T02:30:54.400Z,98986.13
2024-05-09T02:33:24.226Z,98988.41
2024-05-09T02:35:53.796Z,98987.19
2024-05-09T02:38:20.802Z,98990.81
2024-05-09T02:40:50.355Z,98988.03
2024-05-09T02:43:19.915Z,98994.13
2024-05-09T02:45:49.412Z,98996.53
2024-05-09T02:48:16.564Z,99004.00
2024-05-09T02:50:46.522Z,99000.75
2024-05-09T02:53:14.598Z,99000.50
2024-05-09T02:55:44.434Z,99002.84
2024-05-09T02:58:11.956Z,99002.66
2024-05-09T03:00:44.340Z,98996.75
2024-05-09T03:03:13.896Z,99003.53
2024-05-09T03:05:45.470Z,98992.16
2024-05-09T03:08:12.847Z,98995.06
2024-05-09T03:10:42.734Z,98991.19
2024-05-09T03:13:13.083Z,98997.75
2024-05-09T03:15:46.779Z,98999.00
2024-05-09T03:18:14.087Z,98997.00
2024-05-09T03:20:44.701Z,98999.31
2024-05-09T03:23:12.028Z,99004.88
2024-05-09T03:25:41.604Z,99000.78
2024-05-09T03:28:08.608Z,98989.44
2024-05-09T03:30:42.782Z,98991.97
2024-05-09T03:33:15.403Z,98994.25
2024-05-09T03:35:45.854Z,98995.53
2024-05-09T03:38:15.562Z,98990.59
2024-05-09T03:40:49.420Z,98998.47
2024-05-09T03:43:20.124Z,98987.56
2024-05-09T03:45:49.194Z,98987.56
2024-05-09T03:48:21.630Z,98988.66
2024-05-09T03:50:49.039Z,98983.00
2024-05-09T03:53:18.801Z,98988.44
2024-05-09T03:55:47.055Z,98996.56
2024-05-09T03:58:16.564Z,98993.06
2024-05-09T04:00:43.615Z,98992.72
2024-05-09T04:03:13.648Z,98997.06
2024-05-09T04:05:44.566Z,98989.09
2024-05-09T04:08:15.952Z,99002.44
2024-05-09T04:10:43.238Z,98998.34
2024-05-09T04:13:12.971Z,98998.69
2024-05-09T04:15:39.963Z,99001.88
2024-05-09T04:18:09.693Z,99001.94
2024-05-09T04:20:39.697Z,99001.13
2024-05-09T04:23:15.064Z,98999.06
2024-05-09T04:25:43.256Z,98998.75
2024-05-09T04:28:12.968Z,99002.91
2024-05-09T04:30:41.553Z,99003.78
2024-05-09T04:33:14.023Z,99004.28
2024-05-09T04:35:42.771Z,99009.19
2024-05-09T04:38:16.075Z,99012.03
2024-05-09T04:40:43.406Z,99011.41
2024-05-09T04:43:18.988Z,99008.06
2024-05-09T04:45:46.087Z,99014.19
2024-05-09T04:48:16.648Z,99007.41
2024-05-09T04:50:43.972Z,99015.94
2024-05-09T04:53:18.531Z,99010.38
2024-05-09T04:55:45.841Z,99005.97
2024-05-09T04:58:15.465Z,99009.25
2024-05-09T05:00:42.982Z,99011.47
2024-05-09T05:03:15.795Z,99012.34
2024-05-09T05:05:45.392Z,99013.00
2024-05-09T05:08:19.639Z,99013.19
2024-05-09T05:10:48.645Z,99004.94
2024-05-09T05:13:20.546Z,99008.50
2024-05-09T05:15:53.340Z,99006.13
2024-05-09T05:18:20.622Z,99010.88
2024-05-09T05:20:50.637Z,99011.72
2024-05-09T05:23:24.902Z,99012.88
2024-05-09T05:25:54.509Z,99005.81
2024-05-09T05:28:24.588Z,99008.47
2024-05-09T05:30:52.827Z,99010.69
2024-05-09T05:33:23.260Z,99010.78
2024-05-09T05:35:50.644Z,99017.84
2024-05-09T05:38:25.027Z,99019.22
2024-05-09T05:40:54.555Z,99017.09
2024-05-09T05:43:24.112Z,99023.47
2024-05-09T05:45:51.008Z,99028.28
2024-05-09T05:48:20.864Z,99032.59
2024-05-09T05:50:47.960Z,99032.88
2024-05-09T05:53:17.553Z,99042.91
2024-05-09T05:55:47.199Z,99044.22
2024-05-09T05:58:17.067Z,99041.91
2024-05-09T06:00:44.449Z,99045.38
2024-05-09T06:03:15.013Z,99042.50
2024-05-09T06:05:43.977Z,99044.97
2024-05-09T06:08:14.498Z,99046.13
2024-05-09T06:10:42.550Z,99048.19
2024-05-09T06:13:15.791Z,99050.13
2024-05-09T06:15:43.439Z,99051.19
2024-05-09T06:18:13.860Z,99039.69
2024-05-09T06:20:42.328Z,99041.34
2024-05-09T06:23:13.378Z,99038.47
2024-05-09T06:25:41.798Z,99034.22
2024-05-09T06:28:13.985Z,99033.53
2024-05-09T06:30:42.608Z,99028.38
2024-05-09T06:33:15.773Z,99031.13
2024-05-09T06:35:43.994Z,99031.44
2024-05-09T06:38:13.734Z,99037.91
2024-05-09T06:40:42.787Z,99044.88
2024-05-09T06:43:19.097Z,99044.06
2024-05-09T06:45:47.946Z,99042.56
2024-05-09T06:48:20.641Z,99044.00
2024-05-09T06:50:48.300Z,99034.94
2024-05-09T06:53:18.881Z,99035.75
2024-05-09T06:55:45.957Z,99033.09
2024-05-09T06:58:18.614Z,99043.53
2024-05-09T07:00:45.612Z,99033.69
2024-05-09T07:03:18.294Z,99039.25
2024-05-09T07:05:47.938Z,99037.69
2024-05-09T07:08:19.345Z,99037.19
2024-05-09T07:10:46.658Z,99040.97
2024-05-09T07:13:19.172Z,99038.56
2024-05-09T07:15:46.192Z,99036.97
2024-05-09T07:18:20.035Z,99031.91
2024-05-09T07:20:48.560Z,99031.66
2024-05-09T07:23:19.140Z,99034.06
2024-05-09T07:25:46.386Z,99027.13
2024-05-09T07:28:19.831Z,99036.72
2024-05-09T07:30:47.243Z,99035.41
2024-05-09T07:33:22.054Z,99026.00
2024-05-09T07:35:50.555Z,99030.00
2024-05-09T07:38:20.233Z,99027.03
2024-05-09T07:40:47.352Z,99032.63
2024-05-09T07:43:19.557Z,99037.97
2024-05-09T07:45:52.552Z,99033.91
2024-05-09T07:52:45.938Z,99030.03
2024-05-09T07:53:51.327Z,99025.06
2024-05-09T07:56:22.861Z,99031.63
2024-05-09T07:58:56.410Z,99027.91
2024-05-09T08:01:26.442Z,99039.09
2024-05-09T08:03:56.947Z,99036.16
2024-05-09T08:06:24.249Z,99026.25
2024-05-09T08:08:53.784Z,99028.06
2024-05-09T08:11:20.717Z,99022.09
2024-05-09T08:13:50.270Z,99026.28
2024-05-09T08:16:19.931Z,99027.09
2024-05-09T08:18:51.406Z,99026.53
2024-05-09T08:21:19.375Z,99023.31
2024-05-09T08:23:48.969Z,99025.38
2024-05-09T08:26:15.940Z,99017.81
2024-05-09T08:28:45.485Z,99023.69
2024-05-09T08:31:12.800Z,99016.78
2024-05-09T08:33:51.091Z,99009.94
2024-05-09T08:36:18.165Z,99008.50
2024-05-09T08:38:47.609Z,99011.75
2024-05-09T08:41:15.355Z,99015.94
2024-05-09T08:43:47.026Z,99009.72
2024-05-09T08:46:14.423Z,99009.72
2024-05-09T08:48:45.766Z,99011.50
2024-05-09T08:51:15.769Z,99008.81
2024-05-09T08:53:45.390Z,99004.03
2024-05-09T08:56:14.155Z,99014.03
2024-05-09T08:58:45.256Z,99006.56
2024-05-09T09:01:14.326Z,99013.69
2024-05-09T09:03:45.026Z,99007.56
2024-05-09T09:06:18.173Z,99001.97
2024-05-09T09:08:48.327Z,98991.97
2024-05-09T09:11:15.414Z,98999.56
2024-05-09T09:13:44.936Z,98990.22
2024-05-09T09:16:12.961Z,98995.81
2024-05-09T09:18:46.841Z,98996.09
2024-05-09T09:21:17.806Z,98993.47
2024-05-09T09:23:47.364Z,98988.25
2024-05-09T09:26:16.112Z,98998.84
2024-05-09T09:28:45.673Z,98999.34
2024-05-09T09:31:12.775Z,98986.63
2024-05-09T09:33:44.928Z,98989.09
2024-05-09T09:36:14.206Z,98996.16
2024-05-09T09:38:48.837Z,98995.63
2024-05-09T09:41:17.846Z,98988.81
2024-05-09T09:43:47.887Z,98995.13
2024-05-09T09:46:15.380Z,98988.25
2024-05-09T09:48:47.029Z,98986.22
2024-05-09T09:51:14.892Z,98988.69
2024-05-09T09:53:47.766Z,98982.66
2024-05-09T09:56:17.928Z,98976.41
2024-05-09T09:58:49.317Z,98981.94
2024-05-09T10:01:16.431Z,98981.13
2024-05-09T10:03:47.026Z,98978.44
2024-05-09T10:06:15.473Z,98981.41
2024-05-09T10:08:49.047Z,98975.34
2024-05-09T10:11:20.232Z,98977.84
2024-05-09T10:13:49.847Z,98973.00
2024-05-09T10:16:20.697Z,98966.88
2024-05-09T10:18:50.383Z,98975.19
2024-05-09T10:21:17.958Z,98967.84
2024-05-09T10:23:59.693Z,98967.56
2024-05-09T10:26:36.604Z,98960.06
2024-05-09T10:29:12.297Z,98971.50
2024-05-09T10:31:44.545Z,98959.22
2024-05-09T10:34:17.823Z,98959.47
2024-05-09T10:36:47.493Z,98958.41
2024-05-09T10:39:19.076Z,98957.84
2024-05-09T10:41:48.607Z,98957.03
2024-05-09T10:44:17.022Z,98950.38
2024-05-09T10:46:47.552Z,98949.81
2024-05-09T10:49:14.957Z,98945.31
2024-05-09T10:51:47.268Z,98941.25
2024-05-09T10:54:16.912Z,98940.00
2024-05-09T10:56:46.422Z,98933.41
2024-05-09T10:59:13.359Z,98940.78
2024-05-09T11:01:43.417Z,98937.88
2024-05-09T11:04:10.629Z,98941.63
2024-05-09T11:06:41.311Z,98931.19
2024-05-09T11:09:08.741Z,98926.41
2024-05-09T11:11:41.256Z,98923.53
2024-05-09T11:14:14.796Z,98913.94
2024-05-09T11:16:44.458Z,98919.63
2024-05-09T11:19:12.707Z,98916.16
2024-05-09T11:21:42.598Z,98911.69
2024-05-09T11:24:11.164Z,98906.59
2024-05-09T11:26:43.910Z,98906.91
2024-05-09T11:29:10.865Z,98914.44
2024-05-09T11:31:48.487Z,98903.25
2024-05-09T11:34:15.832Z,98913.66
2024-05-09T11:36:45.414Z,98907.66
2024-05-09T11:39:14.690Z,98902.50
2024-05-09T11:41:46.955Z,98898.66
2024-05-09T11:44:13.968Z,98902.88
2024-05-09T11:46:45.683Z,98896.81
2024-05-09T11:49:12.904Z,98889.53
2024-05-09T11:51:43.164Z,98890.72
2024-05-09T11:54:10.652Z,98893.53
2024-05-09T11:56:40.877Z,98878.41
2024-05-09T11:59:11.572Z,98877.47
2024-05-09T12:01:41.855Z,98865.22
2024-05-09T12:04:09.513Z,98870.31
2024-05-09T12:06:39.363Z,98870.31
2024-05-09T12:09:06.427Z,98865.75
2024-05-09T12:11:36.024Z,98865.78
2024-05-09T12:14:03.005Z,98860.16
2024-05-09T12:16:35.323Z,98858.50
2024-05-09T12:19:02.508Z,98866.75
2024-05-09T12:21:32.211Z,98862.78
2024-05-09T12:23:59.262Z,98850.66
2024-05-09T12:26:28.943Z,98847.03
2024-05-09T12:28:56.040Z,98855.34
2024-05-09T12:31:25.744Z,98852.38
2024-05-09T12:33:55.486Z,98854.03
2024-05-09T12:36:25.114Z,98852.06
2024-05-09T12:38:52.260Z,98859.28
2024-05-09T12:41:21.882Z,98855.13
2024-05-09T12:43:49.653Z,98846.81
2024-05-09T12:46:20.456Z,98831.25
2024-05-09T12:48:47.383Z,98838.34
2024-05-09T12:51:19.769Z,98835.53
2024-05-09T12:53:46.737Z,98828.31
2024-05-09T12:56:16.556Z,98830.91
2024-05-09T12:58:43.551Z,98826.66
2024-05-09T13:01:13.182Z,98817.94
2024-05-09T13:03:40.494Z,98816.66
2024-05-09T13:06:10.209Z,98822.44
2024-05-09T13:08:39.926Z,98821.22
2024-05-09T13:11:09.506Z,98819.56
2024-05-09T13:13:37.529Z,98813.38
2024-05-09T13:16:07.760Z,98813.13
2024-05-09T13:18:36.366Z,98809.06
2024-05-09T13:21:06.093Z,98814.94
2024-05-09T13:23:33.076Z,98799.66
2024-05-09T13:26:05.295Z,98804.94
2024-05-09T13:28:33.621Z,98794.94
2024-05-09T13:31:04.369Z,98793.41
2024-05-09T13:33:34.266Z,98799.59
2024-05-09T13:36:03.931Z,98794.63
2024-05-09T13:38:30.966Z,98787.00
2024-05-09T13:41:00.618Z,98789.66
2024-05-09T13:43:30.350Z,98781.97
2024-05-09T13:46:00.158Z,98786.22
2024-05-09T13:48:27.317Z,98789.09
2024-05-09T13:50:56.995Z,98785.72
2024-05-09T13:53:25.155Z,98772.00
2024-05-09T13:55:54.759Z,98781.47
2024-05-09T13:58:23.275Z,98772.88
2024-05-09T14:00:55.883Z,98773.06
2024-05-09T14:03:23.240Z,98766.94
2024-05-09T14:05:53.140Z,98774.44
2024-05-09T14:08:22.248Z,98767.72
2024-05-09T14:10:53.717Z,98762.63
2024-05-09T14:13:20.965Z,98755.44
2024-05-09T14:15:51.011Z,98756.75
2024-05-09T14:18:20.976Z,98759.25
2024-05-09T14:20:50.624Z,98755.81
2024-05-09T14:23:18.106Z,98749.34
2024-05-09T14:25:51.752Z,98740.63
2024-05-09T14:28:19.906Z,98739.53
2024-05-09T14:30:49.617Z,98739.22
2024-05-09T14:33:22.265Z,98732.22
2024-05-09T14:35:54.948Z,98736.78
2024-05-09T14:38:22.188Z,98734.69
2024-05-09T14:40:51.916Z,98730.72
2024-05-09T14:43:19.463Z,98727.09
2024-05-09T14:45:49.371Z,98735.19
2024-05-09T14:48:16.843Z,98729.50
2024-05-09T14:50:46.578Z,98722.53
2024-05-09T14:53:16.131Z,98718.88
2024-05-09T14:55:45.813Z,98723.34
2024-05-09T14:58:13.598Z,98714.13
2024-05-09T15:00:48.355Z,98714.91
2024-05-09T15:03:18.545Z,98715.09
2024-05-09T15:05:49.541Z,98715.75
2024-05-09T15:08:19.984Z,98705.56
2024-05-09T15:10:50.646Z,98710.81
2024-05-09T15:13:18.214Z,98711.44
2024-05-09T15:15:48.215Z,98706.78
2024-05-09T15:18:15.693Z,98710.91
2024-05-09T15:20:46.591Z,98713.09
2024-05-09T15:23:13.868Z,98708.81
2024-05-09T15:25:46.941Z,98699.22
2024-05-09T15:28:13.954Z,98706.03
2024-05-09T15:30:46.349Z,98699.50
2024-05-09T15:33:14.093Z,98697.47
2024-05-09T15:35:45.713Z,98699.25
2024-05-09T15:38:14.015Z,98696.88
2024-05-09T15:40:46.304Z,98693.22
2024-05-09T15:43:13.735Z,98701.31
2024-05-09T15:45:43.498Z,98693.50
2024-05-09T15:48:11.229Z,98697.91
2024-05-09T15:50:42.534Z,98693.34
2024-05-09T15:53:11.163Z,98694.16
2024-05-09T15:55:41.655Z,98690.81
2024-05-09T15:58:12.233Z,98687.97
2024-05-09T16:00:43.702Z,98685.28
2024-05-09T16:03:13.821Z,98684.97
2024-05-09T16:05:46.351Z,98684.34
2024-05-09T16:08:14.805Z,98684.16
2024-05-09T16:10:46.038Z,98685.63
2024-05-09T16:13:19.710Z,98679.88
2024-05-09T16:15:47.158Z,98671.34
2024-05-09T16:18:16.932Z,98685.00
2024-05-09T16:20:45.646Z,98675.47
2024-05-09T16:23:17.322Z,98689.75
2024-05-09T16:25:47.685Z,98679.91
2024-05-09T16:28:22.709Z,98678.81
2024-05-09T16:30:50.490Z,98679.13
2024-05-09T16:33:23.592Z,98686.28
2024-05-09T16:35:50.766Z,98679.59
2024-05-09T16:38:20.311Z,98679.16
2024-05-09T16:40:49.978Z,98676.63
2024-05-09T16:43:19.858Z,98669.63
2024-05-09T16:45:49.613Z,98674.16
2024-05-09T16:48:17.019Z,98666.81
2024-05-09T16:50:46.599Z,98664.78
2024-05-09T16:53:13.754Z,98667.19
2024-05-09T16:55:43.831Z,98667.88
2024-05-09T16:58:12.490Z,98662.63
2024-05-09T17:00:44.802Z,98660.88
2024-05-09T17:03:14.565Z,98664.06
2024-05-09T17:05:46.432Z,98664.03
2024-05-09T17:08:15.621Z,98668.81
2024-05-09T17:10:45.489Z,98666.28
2024-05-09T17:13:15.194Z,98675.94
2024-05-09T17:15:47.807Z,98671.13
2024-05-09T17:18:17.828Z,98664.22
2024-05-09T17:20:44.809Z,98665.69
2024-05-09T17:23:15.061Z,98663.41
2024-05-09T17:25:42.536Z,98670.63
2024-05-09T17:28:12.864Z,98663.56
2024-05-09T17:30:41.816Z,98663.00
2024-05-09T17:33:15.043Z,98667.66
2024-05-09T17:35:42.171Z,98673.00
2024-05-09T17:38:11.973Z,98658.25
2024-05-09T17:40:39.658Z,98660.63
2024-05-09T17:43:10.697Z,98660.25
2024-05-09T17:45:38.505Z,98658.72
2024-05-09T17:48:10.278Z,98657.22
2024-05-09T17:50:41.764Z,98665.69
2024-05-09T17:53:12.115Z,98661.28
2024-05-09T17:55:39.586Z,98666.13
2024-05-09T17:58:09.442Z,98664.69
2024-05-09T18:00:40.102Z,98666.03
2024-05-09T18:03:13.979Z,98666.78
2024-05-09T18:05:44.991Z,98669.13
2024-05-09T18:08:14.990Z,98666.31
2024-05-09T18:10:42.248Z,98665.78
2024-05-09T18:13:12.978Z,98671.69
2024-05-09T18:15:40.488Z,98669.06
2024-05-09T18:18:10.973Z,98669.78
2024-05-09T18:20:43.800Z,98669.03
2024-05-09T18:23:19.396Z,98671.13
2024-05-09T18:25:47.354Z,98666.56
2024-05-09T18:28:18.116Z,98674.00
2024-05-09T18:30:45.228Z,98670.03
2024-05-09T18:33:15.065Z,98675.91
2024-05-09T18:35:43.086Z,98676.47
2024-05-09T18:38:12.989Z,98679.06
2024-05-09T18:40:44.895Z,98679.19
2024-05-09T18:43:16.955Z,98684.53
2024-05-09T18:45:44.639Z,98684.44
2024-05-09T18:48:14.795Z,98681.25
2024-05-09T18:50:42.124Z,98682.03
2024-05-09T18:53:13.494Z,98683.13
2024-05-09T18:55:43.417Z,98684.19
2024-05-09T18:58:13.128Z,98692.94
2024-05-09T19:00:42.831Z,98690.06
2024-05-09T19:03:15.685Z,98690.78
2024-05-09T19:05:44.648Z,98691.09
2024-05-09T19:08:15.862Z,98688.56
2024-05-09T19:10:46.131Z,98686.91
2024-05-09T19:13:16.559Z,98692.03
2024-05-09T19:15:44.422Z,98699.84
2024-05-09T19:18:15.434Z,98694.34
2024-05-09T19:20:42.664Z,98692.13
2024-05-09T19:23:12.412Z,98697.34
2024-05-09T19:25:39.859Z,98701.31
2024-05-09T19:28:12.204Z,98704.22
2024-05-09T19:30:42.022Z,98703.69
2024-05-09T19:33:13.955Z,98707.06
2024-05-09T19:35:41.807Z,98708.94
2024-05-09T19:38:11.998Z,98707.94
2024-05-09T19:40:38.974Z,98713.22
2024-05-09T19:43:08.856Z,98707.06
2024-05-09T19:45:38.886Z,98706.31
2024-05-09T19:48:09.439Z,98712.03
2024-05-09T19:50:41.931Z,98710.84
2024-05-09T19:53:13.959Z,98711.91
2024-05-09T19:55:41.273Z,98717.25
2024-05-09T19:58:12.472Z,98710.56
2024-05-09T20:00:44.028Z,98711.88
2024-05-09T20:03:15.999Z,98708.09
2024-05-09T20:05:45.530Z,98709.41
2024-05-09T20:08:15.926Z,98707.66
2024-05-09T20:10:43.211Z,98713.06
2024-05-09T20:13:13.175Z,98704.75
2024-05-09T20:15:42.817Z,98709.59
2024-05-09T20:18:12.534Z,98699.22
2024-05-09T20:20:42.615Z,98709.19
2024-05-09T20:23:14.139Z,98701.06
2024-05-09T20:25:42.017Z,98707.44
2024-05-09T20:28:11.729Z,98698.38
2024-05-09T20:30:38.898Z,98698.16
2024-05-09T20:33:12.406Z,98697.81
2024-05-09T20:35:39.537Z,98706.91
2024-05-09T20:38:09.288Z,98707.16
2024-05-09T20:40:38.850Z,98701.69
2024-05-09T20:43:10.852Z,98702.84
2024-05-09T20:45:39.046Z,98707.22
2024-05-09T20:48:12.206Z,98716.69
2024-05-09T20:50:41.751Z,98705.28
2024-05-09T20:53:14.696Z,98704.59
2024-05-09T20:55:42.591Z,98704.66
2024-05-09T20:58:12.975Z,98709.94
2024-05-09T21:00:43.605Z,98713.75
2024-05-09T21:03:18.192Z,98701.41
2024-05-09T21:05:46.056Z,98700.97
2024-05-09T21:08:15.929Z,98702.88
2024-05-09T21:10:43.161Z,98705.56
2024-05-09T21:13:13.124Z,98707.22
2024-05-09T21:15:40.154Z,98706.16
2024-05-09T21:18:10.652Z,98710.88
2024-05-09T21:20:40.222Z,98703.69
2024-05-09T21:23:09.889Z,98700.81
2024-05-09T21:25:36.806Z,98707.56
2024-05-09T21:28:06.749Z,98705.97
2024-05-09T21:30:41.259Z,98700.94
2024-05-09T21:33:14.547Z,98705.28
2024-05-09T21:35:45.163Z,98702.38
2024-05-09T21:38:15.979Z,98705.28
2024-05-09T21:40:46.256Z,98711.19
2024-05-09T21:43:14.285Z,98714.34
2024-05-09T21:45:44.236Z,98714.91
2024-05-09T21:48:12.790Z,98716.94
2024-05-09T21:50:42.817Z,98714.31
2024-05-09T21:53:13.508Z,98725.69
2024-05-09T21:55:43.942Z,98725.47
2024-05-09T21:58:11.994Z,98715.88
2024-05-09T22:00:42.877Z,98723.50
2024-05-09T22:03:11.354Z,98727.25
2024-05-09T22:05:44.427Z,98720.28
2024-05-09T22:08:14.481Z,98720.53
2024-05-09T22:10:44.243Z,98719.19
2024-05-09T22:13:11.421Z,98719.22
2024-05-09T22:15:42.390Z,98715.53
2024-05-09T22:18:10.325Z,98716.59
2024-05-09T22:20:45.114Z,98720.59
2024-05-09T22:23:16.070Z,98713.13
2024-05-09T22:25:45.627Z,98712.03
2024-05-09T22:28:14.695Z,98718.75
2024-05-09T22:30:46.316Z,98712.38
2024-05-09T22:33:15.030Z,98711.88
2024-05-09T22:35:45.171Z,98720.44
2024-05-09T22:38:12.137Z,98718.84
2024-05-09T22:40:48.389Z,98711.13
2024-05-09T22:43:19.261Z,98711.41
2024-05-09T22:45:49.801Z,98712.47
2024-05-09T22:48:16.969Z,98713.81
2024-05-09T22:50:46.614Z,98713.00
2024-05-09T22:53:13.588Z,98713.53
2024-05-09T22:55:45.820Z,98706.88
2024-05-09T22:58:12.781Z,98703.66
2024-05-09T23:00:42.418Z,98710.59
2024-05-09T23:03:09.501Z,98713.28
2024-05-09T23:05:39.078Z,98709.81
2024-05-09T23:08:06.539Z,98716.25
2024-05-09T23:10:37.899Z,98704.25
2024-05-09T23:13:08.576Z,98697.53
2024-05-09T23:15:39.094Z,98699.16
2024-05-09T23:18:06.736Z,98693.84
2024-05-09T23:20:39.241Z,98694.09
2024-05-09T23:23:07.495Z,98686.66
2024-05-09T23:25:37.260Z,98694.13
2024-05-09T23:28:07.803Z,98681.88
2024-05-09T23:30:40.157Z,98679.72
2024-05-09T23:33:10.257Z,98678.91
2024-05-09T23:35:40.207Z,98669.84
2024-05-09T23:38:07.138Z,98669.00
2024-05-09T23:40:39.934Z,98671.44
2024-05-09T23:43:12.316Z,98675.75
2024-05-09T23:45:42.872Z,98679.19
2024-05-09T23:48:10.537Z,98668.25
2024-05-09T23:50:40.961Z,98673.59
2024-05-09T23:53:09.594Z,98682.91
2024-05-09T23:55:40.000Z,98681.59
2024-05-09T23:58:07.444Z,98682.38
